createdAt,value
2018-09-18T00:00:24.620Z,72.40
2018-09-18T00:02:55.424Z,71.70
2018-09-18T00:05:26.264Z,71.90
2018-09-18T00:07:57.049Z,71.80
2018-09-18T00:10:28.561Z,72.50
2018-09-18T00:12:59.496Z,71.80
2018-09-18T00:15:30.337Z,71.70
2018-09-18T00:18:01.176Z,71.70
2018-09-18T00:20:32.555Z,71.80
2018-09-18T00:23:03.394Z,71.80
2018-09-18T00:25:34.349Z,72.60
2018-09-18T00:28:05.620Z,72.60
2018-09-18T00:30:36.516Z,72.40
2018-09-18T00:33:07.477Z,72.60
2018-09-18T00:35:38.352Z,73.00
2018-09-18T00:38:09.784Z,73.10
2018-09-18T00:40:40.654Z,73.40
2018-09-18T00:43:11.604Z,74.00
2018-09-18T00:45:43.341Z,73.20
2018-09-18T00:48:14.165Z,73.30
2018-09-18T00:50:45.020Z,73.40
2018-09-18T00:53:15.858Z,73.50
2018-09-18T00:55:47.112Z,73.10
2018-09-18T00:58:17.948Z,73.40
2018-09-18T01:00:48.910Z,72.70
2018-09-18T01:03:19.758Z,72.10
2018-09-18T01:05:50.673Z,73.00
2018-09-18T01:08:21.523Z,73.50
2018-09-18T01:10:52.419Z,73.40
2018-09-18T01:13:23.258Z,73.30
2018-09-18T01:15:54.116Z,73.10
2018-09-18T01:18:28.994Z,73.40
2018-09-18T01:21:00.073Z,73.30
2018-09-18T01:23:30.864Z,73.10
2018-09-18T01:26:01.773Z,73.00
2018-09-18T01:28:32.629Z,73.00
2018-09-18T01:31:04.656Z,73.00
2018-09-18T01:33:35.938Z,73.10
2018-09-18T01:36:06.840Z,73.10
2018-09-18T01:38:37.763Z,72.40
2018-09-18T01:41:08.635Z,72.80
2018-09-18T01:43:39.553Z,73.10
2018-09-18T01:46:10.449Z,73.10
2018-09-18T01:48:41.513Z,73.00
2018-09-18T01:51:12.476Z,73.20
2018-09-18T01:53:43.270Z,73.30
2018-09-18T01:56:14.724Z,72.90
2018-09-18T01:58:45.556Z,73.30
2018-09-18T02:01:16.351Z,73.60
2018-09-18T02:03:47.187Z,73.50
2018-09-18T02:06:17.964Z,73.10
2018-09-18T02:08:48.757Z,73.30
2018-09-18T02:11:19.572Z,73.00
2018-09-18T02:13:50.387Z,72.90
2018-09-18T02:16:21.387Z,73.20
2018-09-18T02:18:52.241Z,72.80
2018-09-18T02:21:23.121Z,72.90
2018-09-18T02:23:53.975Z,73.20
2018-09-18T02:26:24.831Z,73.50
2018-09-18T02:28:55.778Z,73.90
2018-09-18T02:31:27.164Z,73.60
2018-09-18T02:33:57.996Z,73.60
2018-09-18T02:36:29.243Z,73.70
2018-09-18T02:39:00.092Z,73.40
2018-09-18T02:41:31.028Z,73.90
2018-09-18T02:44:02.046Z,74.00
2018-09-18T02:46:32.987Z,74.00
2018-09-18T02:49:03.897Z,74.30
2018-09-18T02:51:34.862Z,74.30
2018-09-18T02:54:05.733Z,73.80
2018-09-18T02:56:36.588Z,73.20
2018-09-18T02:59:07.446Z,73.30
2018-09-18T03:01:38.544Z,73.30
2018-09-18T03:04:09.580Z,73.30
2018-09-18T03:06:40.559Z,73.50
2018-09-18T03:09:12.178Z,73.60
2018-09-18T03:11:43.011Z,73.30
2018-09-18T03:14:13.947Z,73.70
2018-09-18T03:16:44.745Z,73.20
2018-09-18T03:19:15.592Z,73.30
2018-09-18T03:21:46.499Z,74.00
2018-09-18T03:24:17.395Z,73.50
2018-09-18T03:26:48.281Z,74.50
2018-09-18T03:29:19.160Z,74.90
2018-09-18T03:31:50.920Z,74.40
2018-09-18T03:34:21.857Z,74.30
2018-09-18T03:36:52.806Z,73.60
2018-09-18T03:39:23.894Z,73.40
2018-09-18T03:41:54.731Z,72.90
2018-09-18T03:44:25.674Z,73.30
2018-09-18T03:46:56.536Z,73.10
2018-09-18T03:49:27.446Z,73.40
2018-09-18T03:51:58.227Z,73.30
2018-09-18T03:54:29.147Z,73.30
2018-09-18T03:57:00.006Z,73.40
2018-09-18T03:59:30.853Z,74.50
2018-09-18T04:02:01.672Z,73.40
2018-09-18T04:04:32.610Z,72.90
2018-09-18T04:07:04.143Z,72.40
2018-09-18T04:09:34.903Z,72.40
2018-09-18T04:12:05.755Z,72.80
2018-09-18T04:14:36.612Z,72.60
2018-09-18T04:17:07.650Z,72.80
2018-09-18T04:19:38.441Z,72.40
2018-09-18T04:22:09.502Z,72.30
2018-09-18T04:24:40.322Z,72.30
2018-09-18T04:27:11.256Z,72.30
2018-09-18T04:29:42.140Z,72.80
2018-09-18T04:32:13.647Z,73.00
2018-09-18T04:34:44.523Z,73.10
2018-09-18T04:37:15.370Z,72.00
2018-09-18T04:39:46.284Z,72.10
2018-09-18T04:42:17.105Z,72.10
2018-09-18T04:44:47.927Z,72.30
2018-09-18T04:47:18.819Z,72.50
2018-09-18T04:49:49.649Z,72.30
2018-09-18T04:52:20.517Z,71.90
2018-09-18T04:54:51.367Z,71.40
2018-09-18T04:57:22.293Z,70.60
2018-09-18T04:59:53.143Z,70.90
2018-09-18T05:02:24.042Z,70.30
2018-09-18T05:04:54.915Z,69.60
2018-09-18T05:07:25.821Z,69.30
2018-09-18T05:09:56.659Z,68.70
2018-09-18T05:12:27.554Z,67.90
2018-09-18T05:14:58.437Z,67.10
2018-09-18T05:17:29.380Z,67.00
2018-09-18T05:20:00.312Z,66.60
2018-09-18T05:22:31.511Z,64.80
2018-09-18T05:25:02.346Z,64.80
2018-09-18T05:27:33.315Z,65.10
2018-09-18T05:30:04.105Z,63.80
2018-09-18T05:32:35.331Z,64.10
2018-09-18T05:35:06.300Z,62.60
2018-09-18T05:37:37.192Z,62.20
2018-09-18T05:40:08.342Z,61.60
2018-09-18T05:42:39.509Z,61.50
2018-09-18T05:45:10.304Z,62.80
2018-09-18T05:47:41.096Z,62.10
2018-09-18T05:50:12.005Z,60.90
2018-09-18T05:52:42.933Z,59.30
2018-09-18T05:55:13.890Z,58.90
2018-09-18T05:57:44.750Z,57.30
2018-09-18T06:00:15.658Z,58.20
2018-09-18T06:02:46.609Z,57.80
2018-09-18T06:05:17.499Z,58.70
2018-09-18T06:07:48.328Z,57.70
2018-09-18T06:10:19.151Z,56.00
2018-09-18T06:12:50.038Z,55.20
2018-09-18T06:15:21.324Z,55.10
2018-09-18T06:17:52.212Z,53.90
2018-09-18T06:20:23.043Z,52.50
2018-09-18T06:22:54.202Z,52.60
2018-09-18T06:25:25.248Z,51.80
2018-09-18T06:27:56.099Z,51.90
2018-09-18T06:30:27.045Z,52.00
2018-09-18T06:32:57.877Z,52.00
2018-09-18T06:35:28.786Z,52.10
2018-09-18T06:37:59.634Z,51.90
2018-09-18T06:40:30.652Z,51.80
2018-09-18T06:43:01.473Z,50.90
2018-09-18T06:45:32.319Z,50.60
2018-09-18T06:48:03.291Z,49.30
2018-09-18T06:50:34.464Z,48.60
2018-09-18T06:53:05.474Z,47.80
2018-09-18T06:55:36.293Z,47.20
2018-09-18T06:58:07.246Z,46.60
2018-09-18T07:00:38.286Z,46.60
2018-09-18T07:03:09.153Z,45.40
2018-09-18T07:05:40.154Z,45.40
2018-09-18T07:08:11.025Z,45.20
2018-09-18T07:10:41.846Z,45.70
2018-09-18T07:13:12.817Z,45.70
2018-09-18T07:15:43.685Z,46.30
2018-09-18T07:18:14.527Z,45.50
2018-09-18T07:20:45.368Z,47.00
2018-09-18T07:23:16.203Z,46.60
2018-09-18T07:25:47.015Z,48.00
2018-09-18T07:28:17.865Z,47.30
2018-09-18T07:30:48.833Z,45.20
2018-09-18T07:33:19.693Z,45.20
2018-09-18T07:35:50.519Z,45.00
2018-09-18T07:38:21.378Z,44.40
2018-09-18T07:40:52.805Z,43.80
2018-09-18T07:43:23.727Z,43.40
2018-09-18T07:45:54.555Z,43.10
2018-09-18T07:48:29.953Z,42.90
2018-09-18T07:51:00.736Z,42.40
2018-09-18T07:53:31.717Z,41.50
2018-09-18T07:56:03.033Z,40.60
2018-09-18T07:58:34.001Z,40.20
2018-09-18T08:01:05.648Z,39.40
2018-09-18T08:03:36.544Z,38.50
2018-09-18T08:06:07.396Z,37.50
2018-09-18T08:08:38.262Z,37.90
2018-09-18T08:11:09.112Z,38.20
2018-09-18T08:13:40.029Z,38.10
2018-09-18T08:16:10.845Z,38.20
2018-09-18T08:18:41.748Z,39.60
2018-09-18T08:21:12.781Z,39.80
2018-09-18T08:23:43.561Z,39.70
2018-09-18T08:26:14.396Z,39.60
2018-09-18T08:28:45.378Z,39.70
2018-09-18T08:31:16.218Z,38.80
2018-09-18T08:33:47.084Z,39.10
2018-09-18T08:36:17.903Z,38.70
2018-09-18T08:38:49.030Z,38.30
2018-09-18T08:41:19.951Z,38.80
2018-09-18T08:43:50.840Z,37.40
2018-09-18T08:46:21.727Z,36.30
2018-09-18T08:48:57.637Z,36.80
2018-09-18T08:51:28.517Z,36.70
2018-09-18T08:53:59.388Z,35.60
2018-09-18T08:56:30.250Z,35.30
2018-09-18T08:59:01.150Z,35.20
2018-09-18T09:01:32.136Z,36.70
2018-09-18T09:04:02.981Z,36.80
2018-09-18T09:06:33.789Z,36.80
2018-09-18T09:09:07.099Z,35.80
2018-09-18T09:11:37.841Z,35.20
2018-09-18T09:14:09.076Z,35.00
2018-09-18T09:16:40.365Z,35.60
2018-09-18T09:19:11.504Z,35.20
2018-09-18T09:21:42.454Z,35.20
2018-09-18T09:24:13.282Z,35.50
2018-09-18T09:26:44.151Z,35.30
2018-09-18T09:29:14.990Z,34.20
2018-09-18T09:31:45.862Z,33.50
2018-09-18T09:34:16.681Z,33.40
2018-09-18T09:36:47.609Z,32.20
2018-09-18T09:39:18.428Z,32.80
2018-09-18T09:41:49.302Z,32.40
2018-09-18T09:44:20.149Z,33.00
2018-09-18T09:46:50.979Z,32.50
2018-09-18T09:49:21.852Z,32.40
2018-09-18T09:51:52.679Z,32.60
2018-09-18T09:54:23.548Z,33.70
2018-09-18T09:56:54.541Z,33.10
2018-09-18T09:59:25.332Z,34.00
2018-09-18T10:02:01.921Z,33.30
2018-09-18T10:04:32.764Z,33.60
2018-09-18T10:07:03.716Z,32.80
2018-09-18T10:09:34.592Z,32.60
2018-09-18T10:12:05.523Z,34.00
2018-09-18T10:14:36.513Z,34.70
2018-09-18T10:17:07.358Z,34.90
2018-09-18T10:19:38.224Z,35.60
2018-09-18T10:22:09.077Z,35.60
2018-09-18T10:24:39.936Z,35.30
2018-09-18T10:27:10.776Z,35.20
2018-09-18T10:29:41.639Z,34.10
2018-09-18T10:32:13.185Z,34.70
2018-09-18T10:34:44.131Z,34.80
2018-09-18T10:37:15.020Z,36.10
2018-09-18T10:39:46.593Z,35.30
2018-09-18T10:42:17.531Z,36.20
2018-09-18T10:44:48.360Z,36.20
2018-09-18T10:47:19.195Z,35.50
2018-09-18T10:49:50.054Z,34.90
2018-09-18T10:52:20.853Z,35.40
2018-09-18T10:54:51.760Z,36.20
2018-09-18T10:57:23.536Z,35.50
2018-09-18T10:59:54.439Z,35.70
2018-09-18T11:02:25.296Z,35.20
2018-09-18T11:04:56.109Z,35.40
2018-09-18T11:07:26.904Z,35.60
2018-09-18T11:09:57.836Z,35.10
2018-09-18T11:12:28.647Z,35.60
2018-09-18T11:14:59.563Z,36.20
2018-09-18T11:17:30.361Z,37.50
2018-09-18T11:20:01.329Z,36.60
2018-09-18T11:22:32.176Z,37.20
2018-09-18T11:25:03.048Z,37.40
2018-09-18T11:27:33.833Z,36.40
2018-09-18T11:30:04.816Z,36.70
2018-09-18T11:32:35.673Z,37.30
2018-09-18T11:35:06.610Z,37.50
2018-09-18T11:37:37.508Z,37.80
2018-09-18T11:40:08.632Z,38.60
2018-09-18T11:42:39.748Z,37.60
2018-09-18T11:45:10.542Z,37.40
2018-09-18T11:47:41.462Z,37.30
2018-09-18T11:50:12.275Z,37.10
2018-09-18T11:52:43.244Z,37.80
2018-09-18T11:55:14.690Z,38.00
2018-09-18T11:57:45.521Z,38.00
2018-09-18T12:00:16.589Z,37.90
2018-09-18T12:02:47.609Z,38.40
2018-09-18T12:05:18.454Z,38.00
2018-09-18T12:07:49.232Z,38.30
2018-09-18T12:10:20.048Z,39.10
2018-09-18T12:12:50.828Z,39.20
2018-09-18T12:15:21.752Z,38.40
2018-09-18T12:17:52.613Z,38.90
2018-09-18T12:20:23.475Z,39.60
2018-09-18T12:22:54.357Z,39.90
2018-09-18T12:25:25.222Z,39.60
2018-09-18T12:27:56.192Z,39.60
2018-09-18T12:30:26.929Z,40.00
2018-09-18T12:32:57.729Z,40.10
2018-09-18T12:35:28.737Z,40.30
2018-09-18T12:37:59.507Z,39.80
2018-09-18T12:40:30.599Z,40.20
2018-09-18T12:43:01.447Z,40.00
2018-09-18T12:45:32.919Z,40.10
2018-09-18T12:48:03.765Z,39.40
2018-09-18T12:50:34.749Z,40.20
2018-09-18T12:53:05.527Z,39.90
2018-09-18T12:55:36.342Z,39.80
2018-09-18T12:58:07.269Z,39.40
2018-09-18T13:00:38.372Z,40.90
2018-09-18T13:03:09.295Z,40.00
2018-09-18T13:05:40.251Z,39.60
2018-09-18T13:08:11.276Z,39.20
2018-09-18T13:10:42.142Z,39.50
2018-09-18T13:13:13.065Z,39.20
2018-09-18T13:15:44.043Z,39.70
2018-09-18T13:18:14.946Z,39.30
2018-09-18T13:20:45.797Z,39.00
2018-09-18T13:23:16.588Z,39.00
2018-09-18T13:25:47.484Z,39.00
2018-09-18T13:28:18.314Z,39.60
2018-09-18T13:30:49.359Z,38.80
2018-09-18T13:33:20.313Z,39.40
2018-09-18T13:35:51.175Z,39.30
2018-09-18T13:38:22.097Z,39.80
2018-09-18T13:40:53.111Z,39.60
2018-09-18T13:43:23.816Z,39.40
2018-09-18T13:45:54.692Z,39.10
2018-09-18T13:48:25.565Z,39.40
2018-09-18T13:50:56.467Z,38.60
2018-09-18T13:53:27.384Z,38.50
2018-09-18T13:55:58.320Z,39.10
2018-09-18T13:58:29.189Z,38.50
2018-09-18T14:01:00.216Z,38.40
2018-09-18T14:03:31.256Z,39.00
2018-09-18T14:06:02.197Z,39.20
2018-09-18T14:08:33.057Z,39.70
2018-09-18T14:11:04.034Z,38.60
2018-09-18T14:13:34.834Z,39.20
2018-09-18T14:16:07.323Z,39.00
2018-09-18T14:18:38.342Z,38.30
2018-09-18T14:21:09.909Z,38.30
2018-09-18T14:23:40.775Z,38.30
2018-09-18T14:26:11.766Z,38.00
2018-09-18T14:28:42.578Z,38.40
2018-09-18T14:31:13.626Z,38.50
2018-09-18T14:33:44.534Z,38.80
2018-09-18T14:36:15.442Z,38.60
2018-09-18T14:38:46.461Z,38.80
2018-09-18T14:41:17.639Z,38.20
2018-09-18T14:43:48.569Z,39.40
2018-09-18T14:46:19.421Z,39.10
2018-09-18T14:48:50.246Z,38.80
2018-09-18T14:51:21.091Z,39.70
2018-09-18T14:53:51.930Z,38.90
2018-09-18T14:56:22.809Z,39.10
2018-09-18T14:58:53.844Z,39.30
2018-09-18T15:01:25.220Z,39.60
2018-09-18T15:03:56.259Z,40.40
2018-09-18T15:06:27.411Z,39.50
2018-09-18T15:08:58.965Z,39.90
2018-09-18T15:11:29.997Z,40.50
2018-09-18T15:14:00.947Z,41.00
2018-09-18T15:16:31.705Z,40.30
2018-09-18T15:19:02.633Z,40.80
2018-09-18T15:21:36.529Z,41.10
2018-09-18T15:24:07.544Z,40.60
2018-09-18T15:26:39.033Z,40.90
2018-09-18T15:29:09.827Z,41.00
2018-09-18T15:31:40.636Z,40.80
2018-09-18T15:34:11.453Z,41.10
2018-09-18T15:36:42.452Z,41.20
2018-09-18T15:39:13.269Z,41.70
2018-09-18T15:41:44.132Z,41.40
2018-09-18T15:44:14.969Z,41.60
2018-09-18T15:46:45.878Z,41.40
2018-09-18T15:49:16.694Z,41.50
2018-09-18T15:51:47.698Z,41.40
2018-09-18T15:54:18.512Z,42.40
2018-09-18T15:56:49.380Z,43.10
2018-09-18T15:59:20.208Z,43.40
2018-09-18T16:01:51.536Z,43.80
2018-09-18T16:04:22.441Z,43.70
2018-09-18T16:06:53.351Z,44.00
2018-09-18T16:09:24.212Z,44.10
2018-09-18T16:11:55.216Z,44.40
2018-09-18T16:14:26.661Z,44.40
2018-09-18T16:16:58.588Z,44.30
2018-09-18T16:19:29.547Z,44.80
2018-09-18T16:22:00.635Z,44.80
2018-09-18T16:24:31.660Z,45.10
2018-09-18T16:27:02.572Z,45.30
2018-09-18T16:29:33.409Z,45.30
2018-09-18T16:32:04.343Z,45.50
2018-09-18T16:34:35.220Z,45.50
2018-09-18T16:37:06.281Z,45.60
2018-09-18T16:39:37.082Z,45.20
2018-09-18T16:42:08.101Z,45.60
2018-09-18T16:44:39.113Z,45.60
2018-09-18T16:47:10.428Z,45.70
2018-09-18T16:49:41.380Z,45.70
2018-09-18T16:52:12.397Z,45.80
2018-09-18T16:54:43.694Z,45.70
2018-09-18T16:57:15.158Z,45.60
2018-09-18T16:59:46.054Z,45.70
2018-09-18T17:02:17.088Z,45.80
2018-09-18T17:04:48.823Z,46.20
2018-09-18T17:07:19.853Z,46.20
2018-09-18T17:09:50.819Z,46.30
2018-09-18T17:12:22.251Z,46.50
2018-09-18T17:14:53.216Z,46.50
2018-09-18T17:17:24.128Z,46.50
2018-09-18T17:19:55.347Z,46.80
2018-09-18T17:22:26.581Z,46.90
2018-09-18T17:24:57.635Z,47.00
2018-09-18T17:27:28.574Z,47.10
2018-09-18T17:29:59.663Z,47.20
2018-09-18T17:32:30.617Z,47.50
2018-09-18T17:35:01.658Z,47.50
2018-09-18T17:37:32.765Z,47.50
2018-09-18T17:40:03.923Z,47.90
2018-09-18T17:42:35.368Z,48.00
2018-09-18T17:45:08.258Z,47.60
2018-09-18T17:47:40.309Z,47.50
2018-09-18T17:50:11.380Z,47.60
2018-09-18T17:52:42.612Z,47.40
2018-09-18T17:55:13.674Z,47.20
2018-09-18T17:57:45.046Z,47.40
2018-09-18T18:00:15.993Z,47.30
2018-09-18T18:02:46.822Z,47.10
2018-09-18T18:05:17.784Z,47.40
2018-09-18T18:07:48.768Z,47.30
2018-09-18T18:10:19.758Z,47.90
2018-09-18T18:12:50.902Z,47.80
2018-09-18T18:15:22.009Z,48.20
2018-09-18T18:17:53.125Z,49.30
2018-09-18T18:20:24.626Z,48.60
2018-09-18T18:22:55.871Z,48.70
2018-09-18T18:25:27.437Z,49.70
2018-09-18T18:27:58.421Z,50.90
2018-09-18T18:30:29.568Z,50.80
2018-09-18T18:33:00.515Z,51.60
2018-09-18T18:35:31.949Z,51.80
2018-09-18T18:38:03.885Z,52.40
2018-09-18T18:40:35.123Z,52.70
2018-09-18T18:43:06.304Z,52.10
2018-09-18T18:45:37.357Z,52.60
2018-09-18T18:48:08.522Z,53.10
2018-09-18T18:50:39.409Z,53.10
2018-09-18T18:53:10.308Z,53.30
2018-09-18T18:55:41.127Z,53.70
2018-09-18T18:58:12.372Z,53.40
2018-09-18T19:00:43.604Z,53.40
2018-09-18T19:03:14.467Z,53.40
2018-09-18T19:05:45.481Z,53.60
2018-09-18T19:08:16.376Z,53.60
2018-09-18T19:10:47.891Z,53.70
2018-09-18T19:13:18.998Z,53.20
2018-09-18T19:15:49.976Z,53.30
2018-09-18T19:18:20.930Z,53.30
2018-09-18T19:20:53.254Z,53.90
2018-09-18T19:23:24.483Z,53.90
2018-09-18T19:25:56.214Z,54.20
2018-09-18T19:28:27.433Z,53.70
2018-09-18T19:30:58.878Z,53.80
2018-09-18T19:33:30.346Z,53.60
2018-09-18T19:36:02.112Z,54.10
2018-09-18T19:38:35.628Z,54.10
2018-09-18T19:41:06.759Z,54.30
2018-09-18T19:43:37.984Z,54.00
2018-09-18T19:46:09.637Z,54.10
2018-09-18T19:48:41.047Z,54.70
2018-09-18T19:51:12.247Z,54.60
2018-09-18T19:53:44.246Z,54.80
2018-09-18T19:56:15.547Z,54.80
2018-09-18T19:58:47.041Z,54.40
2018-09-18T20:01:18.728Z,54.60
2018-09-18T20:03:50.750Z,54.50
2018-09-18T20:06:21.789Z,54.40
2018-09-18T20:08:53.309Z,54.40
2018-09-18T20:11:27.722Z,54.70
2018-09-18T20:13:58.961Z,54.60
2018-09-18T20:16:29.961Z,54.60
2018-09-18T20:19:00.950Z,53.80
2018-09-18T20:21:32.197Z,54.70
2018-09-18T20:24:03.304Z,55.30
2018-09-18T20:26:34.425Z,54.90
2018-09-18T20:29:06.114Z,56.00
2018-09-18T20:31:37.639Z,55.00
2018-09-18T20:34:09.177Z,55.00
2018-09-18T20:36:40.379Z,54.70
2018-09-18T20:39:12.291Z,54.70
2018-09-18T20:41:43.503Z,54.90
2018-09-18T20:44:14.917Z,54.30
2018-09-18T20:46:46.680Z,54.70
2018-09-18T20:49:19.468Z,56.30
2018-09-18T20:51:50.358Z,55.50
2018-09-18T20:54:21.826Z,55.60
2018-09-18T20:56:52.840Z,55.90
2018-09-18T20:59:24.078Z,55.60
2018-09-18T21:01:55.918Z,55.10
2018-09-18T21:04:26.897Z,55.00
2018-09-18T21:06:57.861Z,55.20
2018-09-18T21:09:28.780Z,55.80
2018-09-18T21:11:59.927Z,55.40
2018-09-18T21:14:30.947Z,55.50
2018-09-18T21:17:02.135Z,55.40
2018-09-18T21:19:33.460Z,55.30
2018-09-18T21:22:04.405Z,55.20
2018-09-18T21:24:36.184Z,55.50
2018-09-18T21:27:07.772Z,55.30
2018-09-18T21:29:39.265Z,55.50
2018-09-18T21:32:10.431Z,55.70
2018-09-18T21:34:41.320Z,56.20
2018-09-18T21:37:12.257Z,56.40
2018-09-18T21:39:43.167Z,56.40
2018-09-18T21:42:14.047Z,56.00
2018-09-18T21:44:45.286Z,56.60
2018-09-18T21:47:16.288Z,56.80
2018-09-18T21:49:47.176Z,56.50
2018-09-18T21:52:18.113Z,57.00
2018-09-18T21:54:49.035Z,56.60
2018-09-18T21:57:19.982Z,57.10
2018-09-18T21:59:50.920Z,57.90
2018-09-18T22:02:22.365Z,57.60
2018-09-18T22:04:53.247Z,57.90
2018-09-18T22:07:24.115Z,57.90
2018-09-18T22:09:54.962Z,58.10
2018-09-18T22:12:26.041Z,58.10
2018-09-18T22:14:57.142Z,58.40
2018-09-18T22:17:28.036Z,58.70
2018-09-18T22:19:58.987Z,57.80
2018-09-18T22:22:29.827Z,57.90
2018-09-18T22:25:00.826Z,58.50
2018-09-18T22:27:31.849Z,58.30
2018-09-18T22:30:02.969Z,59.10
2018-09-18T22:32:33.871Z,59.00
2018-09-18T22:35:04.802Z,59.00
2018-09-18T22:37:35.749Z,58.90
2018-09-18T22:40:06.867Z,59.20
2018-09-18T22:42:37.829Z,59.00
2018-09-18T22:45:08.799Z,58.60
2018-09-18T22:47:39.713Z,58.20
2018-09-18T22:50:10.715Z,59.20
2018-09-18T22:52:41.673Z,57.10
2018-09-18T22:55:12.688Z,58.90
2018-09-18T22:57:43.608Z,59.30
2018-09-18T23:00:14.590Z,58.90
2018-09-18T23:02:45.571Z,59.10
2018-09-18T23:05:16.782Z,59.70
2018-09-18T23:07:47.668Z,59.60
2018-09-18T23:10:18.540Z,59.60
2018-09-18T23:12:49.579Z,60.10
2018-09-18T23:15:20.504Z,60.70
2018-09-18T23:17:51.353Z,61.10
2018-09-18T23:20:22.375Z,60.90
2018-09-18T23:22:53.297Z,60.80
2018-09-18T23:25:24.236Z,60.80
2018-09-18T23:27:55.045Z,61.30
2018-09-18T23:30:26.004Z,61.50
2018-09-18T23:32:56.898Z,60.60
2018-09-18T23:35:27.868Z,62.50
2018-09-18T23:37:58.823Z,61.60
2018-09-18T23:40:30.351Z,61.50
2018-09-18T23:43:01.246Z,61.80
2018-09-18T23:45:32.090Z,62.10
2018-09-18T23:48:03.045Z,62.90
2018-09-18T23:50:34.023Z,63.00
2018-09-18T23:53:04.867Z,62.60
2018-09-18T23:55:35.745Z,62.60
2018-09-18T23:58:06.597Z,62.60
